Time;durP1;ratioP1;P1;durP2;ratioP2;P2;SDS_P1;SDS_P2;PMS_P1;PMS_P2;Temp;Humidity;BMP_temperature;BMP_pressure;BME280_temperature;BME280_humidity;BME280_pressure;Samples;Min_cycle;Max_cycle;Signal;HPM_P1;HPM_P2
2022/04/07 00:01:08;;;;;;;9.18;4.28;;;7.50;99.90;;;;;;5069628;28;20078;-73
2022/04/07 00:03:34;;;;;;;7.88;5.22;;;7.40;99.90;;;;;;5077575;28;20119;-74
2022/04/07 00:06:00;;;;;;;10.00;5.22;;;7.50;99.90;;;;;;5077875;28;20140;-73
2022/04/07 00:08:26;;;;;;;9.73;5.18;;;7.50;99.90;;;;;;5078353;28;20054;-74
2022/04/07 00:10:51;;;;;;;9.05;4.93;;;7.40;99.90;;;;;;5077348;28;20778;-73
2022/04/07 00:13:17;;;;;;;;;;;7.50;99.90;;;;;;5078216;28;20561;-74
2022/04/07 00:15:43;;;;;;;8.30;4.32;;;7.50;99.90;;;;;;5077931;28;19931;-74
2022/04/07 00:18:09;;;;;;;8.63;5.15;;;7.50;99.90;;;;;;5068854;28;20098;-73
2022/04/07 00:20:34;;;;;;;11.23;5.28;;;7.50;99.90;;;;;;5064594;28;20453;-73
2022/04/07 00:23:00;;;;;;;7.72;4.78;;;7.50;99.90;;;;;;5064266;28;20041;-74
2022/04/07 00:25:26;;;;;;;9.88;4.97;;;7.50;99.90;;;;;;5062935;28;20698;-73
2022/04/07 00:27:52;;;;;;;10.73;5.28;;;7.50;99.90;;;;;;5063849;28;20068;-73
2022/04/07 00:30:20;;;;;;;;;;;7.40;99.90;;;;;;5064172;28;20036;-73
2022/04/07 00:32:47;;;;;;;9.25;5.18;;;7.40;99.90;;;;;;5091289;28;20291;-74
2022/04/07 00:35:12;;;;;;;11.85;4.55;;;7.30;99.90;;;;;;5062721;28;20048;-73
2022/04/07 00:37:38;;;;;;;5.65;4.03;;;7.20;99.90;;;;;;5069028;28;20032;-73
2022/04/07 00:40:06;;;;;;;9.25;4.72;;;7.20;99.90;;;;;;5075656;28;20036;-74
2022/04/07 00:42:31;;;;;;;10.55;5.20;;;7.20;99.90;;;;;;5085274;28;20527;-73
2022/04/07 00:44:57;;;;;;;7.25;5.10;;;7.20;99.90;;;;;;5083404;28;20115;-73
2022/04/07 00:47:24;;;;;;;;;;;7.20;99.90;;;;;;5065048;28;20117;-74
2022/04/07 00:49:49;;;;;;;6.00;4.20;;;7.10;99.90;;;;;;5065491;28;19921;-73
2022/04/07 00:52:16;;;;;;;9.15;4.70;;;7.20;99.90;;;;;;5064117;28;20063;-74
2022/04/07 00:54:42;;;;;;;7.22;4.38;;;7.20;99.90;;;;;;5062300;28;20044;-74
2022/04/07 00:57:09;;;;;;;9.27;4.88;;;7.20;99.90;;;;;;5064197;28;20563;-74
2022/04/07 00:59:38;;;;;;;10.88;4.15;;;7.20;99.90;;;;;;5064146;28;20037;-74
2022/04/07 01:02:04;;;;;;;9.82;4.75;;;7.30;99.90;;;;;;5062719;28;20048;-74
2022/04/07 01:04:29;;;;;;;7.70;4.53;;;7.30;99.90;;;;;;5063023;28;20043;-74
2022/04/07 01:06:55;;;;;;;6.43;3.88;;;7.30;99.90;;;;;;5061401;28;20040;-74
2022/04/07 01:09:21;;;;;;;8.00;3.80;;;7.30;99.90;;;;;;5074504;28;20044;-74
2022/04/07 01:11:47;;;;;;;;;;;7.30;99.90;;;;;;5073576;28;20396;-74
2022/04/07 01:14:13;;;;;;;10.03;3.97;;;7.30;99.90;;;;;;5063332;28;19920;-74
2022/04/07 01:16:39;;;;;;;7.30;4.00;;;7.40;99.90;;;;;;5063315;28;20563;-73
2022/04/07 01:19:04;;;;;;;;;;;7.40;99.90;;;;;;5079493;28;20146;-74
2022/04/07 01:21:32;;;;;;;4.30;3.10;;;7.40;99.90;;;;;;5060507;28;19928;-74
2022/04/07 01:24:08;;;;;;;5.47;2.75;;;7.40;99.90;;;;;;5061825;28;20450;-74
2022/04/07 01:26:41;;;;;;;6.47;3.53;;;7.40;99.90;;;;;;5063408;28;20047;-73
2022/04/07 01:29:33;;;;;;;5.57;2.42;;;7.40;99.90;;;;;;5062582;28;20416;-72
2022/04/07 01:32:10;;;;;;;4.93;3.08;;;7.40;99.90;;;;;;5062415;28;20535;-73
2022/04/07 01:34:35;;;;;;;;;;;7.40;99.90;;;;;;5063454;28;20594;-72
2022/04/07 01:37:04;;;;;;;7.32;2.70;;;7.40;99.90;;;;;;5062536;28;19920;-72
2022/04/07 01:39:45;;;;;;;;;;;;;;;;;;;;;
2022/04/07 01:42:19;;;;;;;9.02;3.83;;;7.50;99.90;;;;;;5063381;28;20447;-73
2022/04/07 01:44:48;;;;;;;5.18;2.35;;;7.40;99.90;;;;;;5062075;28;20076;-72
2022/04/07 01:47:22;;;;;;;4.03;2.20;;;7.40;99.90;;;;;;5062497;28;20032;-72
2022/04/07 01:50:14;;;;;;;3.58;2.40;;;7.50;99.90;;;;;;5063624;28;20044;-72
2022/04/07 01:52:45;;;;;;;6.07;2.40;;;7.50;99.90;;;;;;5063648;28;20499;-72
2022/04/07 01:55:15;;;;;;;6.72;2.50;;;7.40;99.90;;;;;;5062638;28;20169;-72
2022/04/07 01:57:47;;;;;;;5.70;2.50;;;7.40;99.90;;;;;;5062746;28;20448;-72
2022/04/07 02:00:15;;;;;;;4.20;2.13;;;7.30;99.90;;;;;;5063536;28;20078;-72
2022/04/07 02:02:50;;;;;;;4.45;1.88;;;7.20;99.90;;;;;;5059962;28;20408;-72
2022/04/07 02:05:21;;;;;;;4.30;2.35;;;7.20;99.90;;;;;;5061610;28;20086;-72
2022/04/07 02:07:47;;;;;;;6.68;2.20;;;7.20;99.90;;;;;;5062607;28;20056;-72
2022/04/07 02:10:32;;;;;;;7.70;1.92;;;7.20;99.90;;;;;;5062322;28;20541;-72
2022/04/07 02:13:03;;;;;;;5.43;2.40;;;7.20;99.90;;;;;;5062831;28;20032;-72
2022/04/07 02:15:40;;;;;;;5.93;2.17;;;7.20;99.90;;;;;;5062794;28;20028;-73
2022/04/07 02:18:05;;;;;;;3.63;1.80;;;7.20;99.90;;;;;;5061054;28;20035;-74
2022/04/07 02:20:31;;;;;;;3.42;1.88;;;7.20;99.90;;;;;;5061893;28;20111;-74
2022/04/07 02:22:57;;;;;;;;;;;7.20;99.90;;;;;;5063512;28;20021;-73
2022/04/07 02:25:27;;;;;;;6.90;2.22;;;7.30;99.90;;;;;;5062504;28;19912;-73
2022/04/07 02:27:53;;;;;;;5.18;2.03;;;7.30;99.90;;;;;;5063375;28;20036;-72
2022/04/07 02:30:19;;;;;;;5.22;1.70;;;7.30;99.90;;;;;;5063292;28;20041;-73
2022/04/07 02:32:45;;;;;;;3.67;1.60;;;7.30;99.90;;;;;;5063378;28;20032;-73
2022/04/07 02:35:12;;;;;;;3.28;1.77;;;7.20;99.90;;;;;;5059297;28;20035;-73
2022/04/07 02:37:38;;;;;;;5.80;1.85;;;7.30;99.90;;;;;;5051853;28;20166;-72
2022/04/07 02:40:05;;;;;;;2.40;1.17;;;7.30;99.90;;;;;;5061993;28;20032;-72
2022/04/07 02:42:30;;;;;;;3.70;1.58;;;7.30;99.90;;;;;;5063920;28;20023;-73
2022/04/07 02:44:56;;;;;;;3.97;1.73;;;7.30;99.90;;;;;;5062356;28;20025;-73
2022/04/07 02:47:32;;;;;;;5.82;1.60;;;7.30;99.90;;;;;;5062437;28;20048;-72
2022/04/07 02:49:58;;;;;;;3.08;1.00;;;7.30;99.90;;;;;;5062412;28;20029;-73
2022/04/07 02:52:24;;;;;;;;;;;7.30;99.90;;;;;;5063164;28;20071;-73
2022/04/07 02:54:49;;;;;;;2.08;0.90;;;7.20;99.90;;;;;;5061835;28;20295;-72
2022/04/07 02:57:15;;;;;;;4.05;1.42;;;7.20;99.90;;;;;;5062630;28;20030;-73
2022/04/07 02:59:40;;;;;;;2.00;1.05;;;7.30;99.90;;;;;;5062910;28;20054;-73
2022/04/07 03:02:06;;;;;;;4.60;1.30;;;7.30;99.90;;;;;;5061867;28;20052;-72
2022/04/07 03:04:31;;;;;;;;;;;7.30;99.90;;;;;;5061918;28;20502;-73
2022/04/07 03:06:57;;;;;;;3.05;1.35;;;7.30;99.90;;;;;;5062529;28;20003;-73
2022/04/07 03:09:22;;;;;;;;;;;7.30;99.90;;;;;;5062583;28;20039;-73
2022/04/07 03:11:48;;;;;;;3.33;1.30;;;7.30;99.90;;;;;;5062532;28;19914;-73
2022/04/07 03:14:14;;;;;;;5.10;1.50;;;7.30;99.90;;;;;;5060324;28;20021;-72
2022/04/07 03:16:40;;;;;;;4.00;1.58;;;7.30;99.90;;;;;;5061874;28;20036;-72
2022/04/07 03:19:06;;;;;;;2.85;1.17;;;7.30;99.90;;;;;;5061476;28;20037;-72
2022/04/07 03:21:31;;;;;;;4.05;1.35;;;7.30;99.90;;;;;;5060194;28;20028;-73
2022/04/07 03:23:57;;;;;;;;;;;7.30;99.90;;;;;;5059788;28;20397;-73
2022/04/07 03:26:22;;;;;;;3.92;1.35;;;7.30;99.90;;;;;;5062070;28;19927;-73
2022/04/07 03:28:48;;;;;;;2.15;0.98;;;7.30;99.90;;;;;;5061931;28;20028;-72
2022/04/07 03:31:13;;;;;;;;;;;7.20;99.90;;;;;;5062184;28;20500;-73
2022/04/07 03:33:39;;;;;;;2.40;0.98;;;7.20;99.90;;;;;;5060650;28;20030;-72
2022/04/07 03:36:05;;;;;;;2.78;1.00;;;7.20;99.90;;;;;;5062593;28;20054;-73
2022/04/07 03:38:31;;;;;;;5.28;1.50;;;7.20;99.90;;;;;;5061799;28;20035;-73
2022/04/07 03:40:56;;;;;;;2.53;1.05;;;7.20;99.90;;;;;;5062090;28;20075;-73
2022/04/07 03:43:22;;;;;;;1.98;1.05;;;7.10;99.90;;;;;;5061515;28;20113;-73
2022/04/07 03:45:48;;;;;;;2.70;1.20;;;7.20;99.90;;;;;;5061791;28;20153;-73
2022/04/07 03:48:14;;;;;;;2.97;1.00;;;7.10;99.90;;;;;;5061205;28;20029;-73
2022/04/07 03:50:43;;;;;;;4.50;1.20;;;7.10;99.90;;;;;;5061853;28;20393;-74
2022/04/07 03:53:08;;;;;;;6.05;1.40;;;7.10;99.90;;;;;;5063066;28;20492;-73
2022/04/07 03:55:34;;;;;;;1.95;1.00;;;7.10;99.90;;;;;;5065291;28;20089;-72
2022/04/07 03:57:59;;;;;;;3.80;1.08;;;7.10;99.90;;;;;;5065801;28;20025;-73
2022/04/07 04:00:28;;;;;;;4.97;1.40;;;7.10;99.90;;;;;;5065629;28;20029;-74
2022/04/07 04:02:54;;;;;;;5.95;1.05;;;7.10;99.90;;;;;;5064800;28;20060;-72
2022/04/07 04:05:19;;;;;;;1.65;0.98;;;7.10;99.90;;;;;;5064480;28;20113;-73
2022/04/07 04:07:45;;;;;;;1.60;0.80;;;7.10;99.90;;;;;;5061437;28;20029;-73
2022/04/07 04:10:10;;;;;;;2.67;0.90;;;7.10;99.90;;;;;;5064287;28;20044;-73
2022/04/07 04:12:36;;;;;;;4.65;1.05;;;7.10;99.90;;;;;;5066091;28;20126;-73
2022/04/07 04:15:03;;;;;;;3.30;1.17;;;7.10;99.90;;;;;;5065494;28;20056;-73
2022/04/07 04:17:30;;;;;;;2.72;0.95;;;7.10;99.90;;;;;;5064972;28;20032;-75
2022/04/07 04:19:56;;;;;;;2.33;1.08;;;7.10;99.90;;;;;;5065737;28;20125;-74
2022/04/07 04:22:22;;;;;;;7.22;1.27;;;7.10;99.90;;;;;;5065923;28;20762;-73
2022/04/07 04:24:48;;;;;;;3.92;1.10;;;7.10;99.90;;;;;;5064788;28;20040;-69
2022/04/07 04:27:14;;;;;;;5.38;1.00;;;7.10;99.90;;;;;;5064926;28;20123;-72
2022/04/07 04:29:40;;;;;;;3.53;0.80;;;7.10;99.90;;;;;;5064470;28;20032;-68
2022/04/07 04:32:06;;;;;;;4.53;1.00;;;7.10;99.90;;;;;;5063314;28;20043;-69
2022/04/07 04:34:32;;;;;;;7.10;1.27;;;7.10;99.90;;;;;;5057927;28;20037;-66
2022/04/07 04:36:58;;;;;;;3.25;1.08;;;7.20;99.90;;;;;;5042075;28;20044;-69
2022/04/07 04:39:24;;;;;;;7.60;1.88;;;7.10;99.90;;;;;;5045813;28;20036;-67
2022/04/07 04:41:50;;;;;;;2.50;1.10;;;7.20;99.90;;;;;;5043657;28;20033;-69
2022/04/07 04:44:15;;;;;;;4.38;0.95;;;7.20;99.90;;;;;;5046145;28;20083;-66
2022/04/07 04:46:41;;;;;;;5.25;1.30;;;7.20;99.90;;;;;;5063297;28;20040;-69
2022/04/07 04:49:07;;;;;;;4.35;1.00;;;7.20;99.90;;;;;;5063693;28;20035;-68
2022/04/07 04:51:33;;;;;;;5.22;1.90;;;7.20;99.90;;;;;;5043787;28;20048;-70
2022/04/07 04:53:58;;;;;;;;;;;7.20;99.90;;;;;;5044644;28;20040;-69
2022/04/07 04:56:24;;;;;;;5.38;1.08;;;7.20;99.90;;;;;;5060003;28;20682;-69
2022/04/07 04:58:49;;;;;;;7.32;2.00;;;7.20;99.90;;;;;;5046648;28;20139;-68
2022/04/07 05:01:15;;;;;;;3.25;1.05;;;7.20;99.90;;;;;;5043552;28;20052;-71
2022/04/07 05:03:40;;;;;;;;;;;7.20;99.90;;;;;;5042848;28;20037;-71
2022/04/07 05:06:06;;;;;;;3.10;1.10;;;7.20;99.90;;;;;;5057670;28;20584;-72
2022/04/07 05:08:32;;;;;;;1.83;0.82;;;7.20;99.90;;;;;;5048460;28;20517;-71
2022/04/07 05:10:57;;;;;;;;;;;7.10;99.90;;;;;;5057695;28;20024;-73
2022/04/07 05:13:23;;;;;;;1.83;1.00;;;7.20;99.90;;;;;;5063752;28;20388;-71
2022/04/07 05:15:49;;;;;;;1.55;0.80;;;7.20;99.90;;;;;;5052982;28;20059;-71
2022/04/07 05:18:14;;;;;;;2.20;0.70;;;7.30;99.90;;;;;;5043826;28;20164;-71
2022/04/07 05:20:40;;;;;;;3.42;1.20;;;7.30;99.90;;;;;;5043498;28;20032;-72
2022/04/07 05:23:05;;;;;;;1.00;0.90;;;7.40;99.90;;;;;;5043394;28;20029;-69
2022/04/07 05:25:31;;;;;;;;;;;7.40;99.90;;;;;;5045689;28;20041;-68
2022/04/07 05:27:57;;;;;;;2.47;1.15;;;7.40;99.90;;;;;;5051711;28;19912;-71
2022/04/07 05:30:22;;;;;;;1.40;0.80;;;7.40;99.90;;;;;;5056161;28;20115;-68
2022/04/07 05:32:48;;;;;;;1.83;0.90;;;7.50;99.90;;;;;;5049243;28;20546;-70
2022/04/07 05:35:15;;;;;;;1.67;0.68;;;7.50;99.90;;;;;;5045966;28;20063;-71
2022/04/07 05:37:41;;;;;;;1.58;0.70;;;7.50;99.90;;;;;;5056029;28;20527;-70
2022/04/07 05:40:10;;;;;;;3.63;1.00;;;7.60;99.90;;;;;;5045938;28;20029;-69
2022/04/07 05:42:36;;;;;;;2.15;1.05;;;7.60;99.90;;;;;;5063976;28;20056;-70
2022/04/07 05:45:01;;;;;;;1.63;1.17;;;7.60;99.90;;;;;;5059217;28;20559;-69
2022/04/07 05:47:27;;;;;;;;;;;7.60;99.90;;;;;;5043385;28;20144;-71
2022/04/07 05:49:54;;;;;;;2.13;0.90;;;7.60;99.90;;;;;;5043961;28;19913;-70
2022/04/07 05:52:20;;;;;;;4.05;1.23;;;7.70;99.90;;;;;;5047026;28;20036;-70
2022/04/07 05:54:46;;;;;;;2.28;0.80;;;7.80;99.90;;;;;;5042678;28;20214;-72
2022/04/07 05:57:12;;;;;;;;;;;7.80;99.90;;;;;;5045365;28;20033;-70
2022/04/07 05:59:37;;;;;;;1.33;0.88;;;7.80;99.90;;;;;;5049589;28;19913;-71
2022/04/07 06:02:04;;;;;;;1.80;0.98;;;7.80;99.90;;;;;;5056447;28;20125;-71
2022/04/07 06:04:30;;;;;;;3.72;0.77;;;7.80;99.90;;;;;;5062247;28;20094;-73
2022/04/07 06:06:55;;;;;;;1.38;0.82;;;7.80;99.90;;;;;;5048790;28;20032;-70
2022/04/07 06:09:21;;;;;;;1.92;0.90;;;7.80;99.90;;;;;;5042343;28;20120;-69
2022/04/07 06:11:46;;;;;;;;;;;7.80;99.90;;;;;;5046317;28;20033;-70
2022/04/07 06:14:12;;;;;;;3.80;0.80;;;7.80;99.90;;;;;;5031140;28;19921;-70
2022/04/07 06:16:38;;;;;;;;;;;7.70;99.90;;;;;;5037017;28;20099;-72
2022/04/07 06:19:04;;;;;;;2.28;0.80;;;7.70;99.90;;;;;;5036644;28;20016;-71
2022/04/07 06:21:29;;;;;;;1.30;0.65;;;7.60;99.90;;;;;;5044224;28;20052;-70
2022/04/07 06:23:57;;;;;;;1.08;0.82;;;7.60;99.90;;;;;;5043176;28;20040;-69
2022/04/07 06:26:23;;;;;;;4.72;0.70;;;7.60;99.90;;;;;;5038283;28;20269;-68
2022/04/07 06:28:49;;;;;;;0.75;0.50;;;7.60;99.90;;;;;;5042540;28;20068;-69
2022/04/07 06:31:15;;;;;;;1.20;0.80;;;7.50;99.90;;;;;;5041602;28;20527;-69
2022/04/07 06:33:40;;;;;;;1.83;0.70;;;7.50;99.90;;;;;;5043885;28;20418;-69
2022/04/07 06:36:06;;;;;;;0.73;0.60;;;7.50;99.90;;;;;;5044399;28;20661;-70
2022/04/07 06:38:33;;;;;;;;;;;7.60;99.90;;;;;;5043439;28;20112;-70
2022/04/07 06:40:59;;;;;;;1.10;0.70;;;7.60;99.90;;;;;;5043110;28;19912;-68
2022/04/07 06:43:25;;;;;;;0.80;0.70;;;7.60;99.90;;;;;;5061781;28;20036;-69
2022/04/07 06:45:51;;;;;;;0.75;0.52;;;7.60;99.90;;;;;;5062814;28;20132;-68
2022/04/07 06:48:16;;;;;;;;;;;7.70;99.90;;;;;;5044888;28;20029;-71
2022/04/07 06:50:44;;;;;;;3.53;0.47;;;7.80;99.90;;;;;;5044168;28;20003;-68
2022/04/07 06:53:11;;;;;;;3.08;0.60;;;7.80;99.90;;;;;;5059999;28;20083;-68
2022/04/07 06:55:40;;;;;;;0.60;0.60;;;7.80;99.90;;;;;;5043565;28;20040;-70
2022/04/07 06:58:09;;;;;;;1.20;0.55;;;7.80;99.90;;;;;;5040198;28;20029;-70
2022/04/07 07:00:40;;;;;;;1.20;0.47;;;7.80;99.90;;;;;;5041692;28;20040;-70
2022/04/07 07:03:06;;;;;;;1.45;0.70;;;7.90;99.90;;;;;;5041524;28;20552;-69
2022/04/07 07:05:32;;;;;;;;;;;8.10;99.90;;;;;;5042458;28;20124;-68
2022/04/07 07:08:13;;;;;;;1.20;0.55;;;8.20;99.90;;;;;;5041822;28;19917;-69
2022/04/07 07:10:40;;;;;;;2.58;0.50;;;8.10;99.90;;;;;;5041182;28;20060;-70
2022/04/07 07:13:05;;;;;;;1.65;0.50;;;8.00;99.90;;;;;;5038968;28;20053;-69
2022/04/07 07:15:31;;;;;;;;;;;8.00;99.90;;;;;;5040422;28;20971;-70
2022/04/07 07:17:56;;;;;;;1.42;0.40;;;8.10;99.90;;;;;;5040503;28;19932;-70
2022/04/07 07:20:22;;;;;;;0.60;0.35;;;8.20;99.90;;;;;;5039921;28;20473;-69
2022/04/07 07:22:48;;;;;;;4.35;0.50;;;8.10;99.90;;;;;;5038403;28;20037;-70
2022/04/07 07:25:14;;;;;;;0.80;0.45;;;8.10;99.90;;;;;;5038868;28;20029;-68
2022/04/07 07:27:45;;;;;;;1.80;0.52;;;8.00;99.90;;;;;;5040768;28;20045;-68
2022/04/07 07:30:13;;;;;;;0.57;0.30;;;7.90;99.90;;;;;;5045308;28;20107;-69
2022/04/07 07:32:40;;;;;;;1.73;0.40;;;7.90;99.90;;;;;;5063523;28;20032;-68
2022/04/07 07:35:08;;;;;;;1.27;0.40;;;7.90;99.90;;;;;;5065002;28;20044;-69
2022/04/07 07:37:34;;;;;;;0.98;0.50;;;7.70;99.90;;;;;;5064871;28;20064;-70
2022/04/07 07:40:11;;;;;;;0.85;0.30;;;7.50;99.90;;;;;;5065145;28;20043;-70
2022/04/07 07:42:36;;;;;;;0.40;0.20;;;7.50;99.90;;;;;;5063008;28;20041;-70
2022/04/07 07:45:04;;;;;;;1.58;0.40;;;7.40;99.90;;;;;;5065431;28;20033;-70
2022/04/07 07:47:29;;;;;;;0.90;0.30;;;7.40;99.90;;;;;;5066129;28;20045;-70
2022/04/07 07:49:55;;;;;;;;;;;7.50;99.90;;;;;;5066734;28;20033;-67
2022/04/07 07:52:20;;;;;;;0.47;0.35;;;7.80;99.90;;;;;;5066177;28;19922;-69
2022/04/07 07:54:46;;;;;;;1.23;0.50;;;8.10;99.90;;;;;;5064442;28;20496;-69
2022/04/07 07:57:12;;;;;;;;;;;8.20;99.90;;;;;;5060490;28;20041;-70
2022/04/07 07:59:37;;;;;;;1.17;0.40;;;8.10;99.90;;;;;;5097304;28;20378;-70
2022/04/07 08:02:03;;;;;;;;;;;8.00;99.90;;;;;;5049879;28;20138;-71
2022/04/07 08:04:29;;;;;;;0.20;0.20;;;8.10;99.90;;;;;;5045690;28;20694;-68
2022/04/07 08:06:55;;;;;;;0.20;0.20;;;8.40;99.90;;;;;;5069186;28;20140;-69
2022/04/07 08:09:21;;;;;;;;;;;8.50;99.90;;;;;;5050801;28;20040;-69
2022/04/07 08:11:46;;;;;;;1.02;0.20;;;8.50;99.90;;;;;;5044907;28;19917;-68
2022/04/07 08:14:12;;;;;;;;;;;8.60;99.90;;;;;;5044011;28;20044;-71
2022/04/07 08:16:38;;;;;;;1.30;0.20;;;8.70;99.90;;;;;;5045802;28;19951;-68
2022/04/07 08:19:05;;;;;;;0.68;0.30;;;8.60;99.90;;;;;;5044848;28;20156;-68
2022/04/07 08:21:31;;;;;;;0.55;0.30;;;8.50;99.90;;;;;;5044424;28;20094;-68
2022/04/07 08:23:56;;;;;;;0.40;0.38;;;8.40;99.90;;;;;;5043947;28;20037;-70
2022/04/07 08:26:22;;;;;;;;;;;8.40;99.90;;;;;;5044873;28;20282;-70
2022/04/07 08:28:47;;;;;;;0.52;0.20;;;8.40;99.90;;;;;;5045672;28;19921;-70
2022/04/07 08:31:13;;;;;;;0.40;0.20;;;8.20;99.90;;;;;;5045867;28;20452;-70
2022/04/07 08:33:39;;;;;;;0.63;0.30;;;8.00;99.90;;;;;;5042388;28;20056;-74
2022/04/07 08:36:05;;;;;;;0.20;0.20;;;8.00;99.90;;;;;;5059718;28;20047;-69
2022/04/07 08:38:30;;;;;;;;;;;8.00;99.90;;;;;;5044378;28;20195;-70
2022/04/07 08:40:56;;;;;;;0.20;0.20;;;8.20;99.90;;;;;;5051691;28;19916;-71
2022/04/07 08:43:25;;;;;;;0.13;0.13;;;8.20;99.90;;;;;;5044202;28;20099;-70
2022/04/07 08:45:51;;;;;;;0.20;0.20;;;8.30;99.90;;;;;;5045770;28;20076;-71
2022/04/07 08:48:16;;;;;;;;;;;8.20;99.90;;;;;;5045660;28;20701;-69
2022/04/07 08:50:43;;;;;;;0.10;0.10;;;8.20;99.90;;;;;;5080838;28;19916;-70
2022/04/07 08:53:10;;;;;;;3.08;0.28;;;8.10;99.90;;;;;;5047039;28;20044;-72
2022/04/07 08:55:37;;;;;;;6.82;0.40;;;8.00;99.90;;;;;;5056497;28;20037;-71
2022/04/07 08:58:03;;;;;;;0.73;0.20;;;7.80;99.90;;;;;;5043691;28;20107;-68
2022/04/07 09:00:28;;;;;;;;;;;7.80;99.90;;;;;;5044285;28;20544;-70
2022/04/07 09:02:54;;;;;;;0.52;0.20;;;7.80;99.90;;;;;;5044582;28;19956;-69
2022/04/07 09:05:25;;;;;;;0.47;0.35;;;8.00;99.90;;;;;;5042182;28;20040;-71
2022/04/07 09:07:56;;;;;;;1.02;0.20;;;8.10;99.90;;;;;;5043618;28;20831;-71
2022/04/07 09:10:24;;;;;;;3.05;0.30;;;8.30;99.90;;;;;;5043279;28;20099;-72
2022/04/07 09:12:53;;;;;;;0.30;0.20;;;8.30;99.90;;;;;;5043428;28;20116;-71
2022/04/07 09:15:19;;;;;;;0.20;0.20;;;8.20;99.90;;;;;;5040205;28;20055;-69
2022/04/07 09:17:54;;;;;;;0.55;0.30;;;8.10;99.90;;;;;;5041342;28;20024;-70
2022/04/07 09:20:22;;;;;;;0.50;0.40;;;8.00;99.90;;;;;;5042747;28;20041;-72
2022/04/07 09:22:57;;;;;;;0.82;0.28;;;7.90;99.90;;;;;;5043926;28;20128;-69
2022/04/07 09:25:23;;;;;;;3.10;0.37;;;7.90;99.90;;;;;;5039827;28;20124;-71
2022/04/07 09:27:49;;;;;;;;;;;7.90;99.90;;;;;;5043452;28;20210;-70
2022/04/07 09:30:15;;;;;;;0.30;0.20;;;8.10;99.90;;;;;;5044362;28;19927;-71
2022/04/07 09:32:43;;;;;;;0.10;0.10;;;8.30;99.90;;;;;;5063254;28;20135;-71
2022/04/07 09:35:09;;;;;;;0.13;0.13;;;8.30;99.90;;;;;;5051098;28;20029;-70
2022/04/07 09:37:35;;;;;;;0.20;0.20;;;8.40;99.90;;;;;;5042026;28;20041;-71
2022/04/07 09:40:07;;;;;;;;;;;8.50;99.90;;;;;;5044816;28;20039;-71
2022/04/07 09:42:35;;;;;;;0.20;0.20;;;8.50;99.90;;;;;;5037193;28;19955;-71
2022/04/07 09:45:04;;;;;;;0.95;0.30;;;8.60;99.90;;;;;;5039485;28;20041;-70
2022/04/07 09:47:49;;;;;;;0.15;0.13;;;8.60;99.90;;;;;;5041675;28;20049;-72
2022/04/07 09:50:29;;;;;;;3.75;0.20;;;8.50;99.90;;;;;;5050597;28;20301;-69
2022/04/07 09:53:19;;;;;;;0.30;0.28;;;8.30;99.90;;;;;;5064303;28;20043;-69
2022/04/07 09:55:45;;;;;;;1.38;0.20;;;8.10;99.90;;;;;;5049580;28;20106;-71
2022/04/07 09:58:12;;;;;;;;;;;8.10;99.90;;;;;;5068419;28;20037;-70
2022/04/07 10:00:39;;;;;;;0.13;0.13;;;8.10;99.90;;;;;;5044444;28;19992;-71
2022/04/07 10:03:05;;;;;;;0.10;0.10;;;8.20;99.90;;;;;;5062724;28;20651;-70
2022/04/07 10:05:50;;;;;;;0.13;0.10;;;8.30;99.90;;;;;;5043137;28;20036;-72
2022/04/07 10:08:16;;;;;;;0.80;0.20;;;8.60;99.90;;;;;;5037578;28;20041;-71
2022/04/07 10:10:42;;;;;;;;;;;8.80;99.90;;;;;;5040980;28;20102;-70
2022/04/07 10:13:09;;;;;;;1.25;0.20;;;8.90;99.90;;;;;;5043089;28;19913;-71
2022/04/07 10:15:38;;;;;;;2.15;0.13;;;9.00;99.90;;;;;;5042807;28;20538;-71
2022/04/07 10:18:09;;;;;;;0.30;0.20;;;9.00;99.90;;;;;;5051496;28;20127;-71
2022/04/07 10:20:39;;;;;;;0.45;0.20;;;9.00;99.90;;;;;;5052517;28;20036;-71
2022/04/07 10:23:10;;;;;;;0.75;0.25;;;9.00;99.90;;;;;;5051573;28;20597;-71
2022/04/07 10:25:43;;;;;;;0.50;0.10;;;9.00;99.90;;;;;;5054934;28;20017;-70
2022/04/07 10:28:11;;;;;;;0.65;0.20;;;9.00;99.90;;;;;;5049393;28;20021;-70
2022/04/07 10:30:50;;;;;;;0.40;0.20;;;9.00;99.90;;;;;;5054992;28;20032;-70
2022/04/07 10:33:46;;;;;;;1.55;0.20;;;9.00;99.90;;;;;;5052707;28;20564;-71
2022/04/07 10:36:15;;;;;;;0.20;0.20;;;9.00;99.90;;;;;;5042345;28;20037;-72
2022/04/07 10:38:47;;;;;;;0.28;0.17;;;8.90;99.90;;;;;;5055252;28;20036;-70
2022/04/07 10:41:53;;;;;;;0.10;0.10;;;8.80;99.90;;;;;;5047943;28;20040;-71
2022/04/07 10:44:22;;;;;;;0.15;0.15;;;8.80;99.90;;;;;;5038394;28;20037;-70
2022/04/07 10:46:47;;;;;;;8.60;0.20;;;8.80;99.90;;;;;;5040661;28;20052;-71
2022/04/07 10:49:24;;;;;;;;;;;8.80;99.90;;;;;;5043675;28;20032;-71
2022/04/07 10:51:58;;;;;;;2.92;0.22;;;9.10;99.90;;;;;;5041742;28;19944;-70
2022/04/07 10:54:28;;;;;;;0.22;0.20;;;9.40;99.90;;;;;;5041081;28;20032;-71
2022/04/07 10:56:59;;;;;;;0.30;0.10;;;9.60;99.90;;;;;;5042264;28;20040;-71
2022/04/07 10:59:31;;;;;;;0.13;0.13;;;9.70;99.90;;;;;;5043873;28;20123;-70
2022/04/07 11:01:59;;;;;;;0.20;0.20;;;9.70;99.90;;;;;;5056086;28;20045;-71
2022/04/07 11:04:25;;;;;;;0.10;0.10;;;9.60;99.90;;;;;;5061835;28;20048;-71
2022/04/07 11:07:10;;;;;;;;;;;9.40;99.90;;;;;;5060826;28;20354;-70
2022/04/07 11:09:58;;;;;;;0.82;0.40;;;9.30;99.90;;;;;;5056280;28;19917;-70
2022/04/07 11:12:29;;;;;;;0.73;0.22;;;9.20;99.90;;;;;;5062760;28;20041;-70
2022/04/07 11:15:01;;;;;;;5.15;0.30;;;9.00;99.90;;;;;;5057653;28;20139;-71
2022/04/07 11:17:35;;;;;;;0.45;0.20;;;9.00;99.90;;;;;;5064281;28;20055;-71
2022/04/07 11:20:13;;;;;;;1.30;0.20;;;9.00;99.90;;;;;;5058195;28;20037;-68
2022/04/07 11:23:01;;;;;;;3.60;0.28;;;8.90;99.90;;;;;;5058306;28;20040;-68
2022/04/07 11:25:30;;;;;;;1.15;0.20;;;8.80;99.90;;;;;;5040947;28;20041;-66
2022/04/07 11:28:14;;;;;;;0.10;0.10;;;8.50;99.90;;;;;;5061266;28;20420;-68
2022/04/07 11:30:49;;;;;;;1.27;0.20;;;8.00;99.90;;;;;;5049720;28;20036;-67
2022/04/07 11:33:38;;;;;;;2.70;0.28;;;7.40;99.90;;;;;;5037166;28;20045;-68
2022/04/07 11:36:04;;;;;;;0.20;0.10;;;7.00;99.90;;;;;;5035550;28;20099;-68
2022/04/07 11:38:30;;;;;;;;;;;6.70;99.90;;;;;;5039736;28;20041;-68
2022/04/07 11:41:01;;;;;;;1.80;0.10;;;6.60;99.90;;;;;;5038601;28;19975;-69
2022/04/07 11:43:26;;;;;;;0.13;0.10;;;6.60;99.90;;;;;;5040147;28;20033;-68
2022/04/07 11:45:53;;;;;;;0.57;0.20;;;6.60;99.90;;;;;;5040374;28;20036;-69
2022/04/07 11:48:20;;;;;;;0.45;0.30;;;6.70;99.90;;;;;;5031911;28;20652;-69
2022/04/07 11:50:46;;;;;;;0.30;0.20;;;6.70;99.90;;;;;;5022657;28;20032;-67
2022/04/07 11:53:12;;;;;;;4.95;0.25;;;6.80;99.90;;;;;;5039083;28;20029;-70
2022/04/07 11:55:37;;;;;;;0.68;0.30;;;6.90;99.90;;;;;;5046009;28;20037;-69
2022/04/07 11:58:03;;;;;;;1.65;0.32;;;7.00;99.90;;;;;;5051541;28;20610;-68
2022/04/07 12:00:30;;;;;;;0.28;0.20;;;7.10;99.90;;;;;;5042612;28;20037;-67
2022/04/07 12:03:02;;;;;;;0.35;0.20;;;7.20;99.90;;;;;;5061319;28;20033;-69
2022/04/07 12:05:30;;;;;;;0.77;0.20;;;7.30;99.90;;;;;;5060308;28;20566;-69
2022/04/07 12:07:56;;;;;;;2.35;0.20;;;7.50;99.90;;;;;;5062099;28;20044;-69
2022/04/07 12:10:22;;;;;;;1.00;0.20;;;7.60;99.90;;;;;;5062401;28;20496;-70
2022/04/07 12:12:48;;;;;;;;;;;7.60;99.90;;;;;;5062779;28;20041;-69
2022/04/07 12:15:16;;;;;;;0.40;0.30;;;7.70;99.90;;;;;;5062667;28;19917;-70
2022/04/07 12:18:09;;;;;;;0.85;0.30;;;7.90;99.90;;;;;;5064236;28;20037;-70
2022/04/07 12:20:38;;;;;;;0.30;0.20;;;8.10;99.90;;;;;;5064497;28;20467;-69
2022/04/07 12:23:12;;;;;;;0.30;0.30;;;8.20;99.90;;;;;;5064903;28;20053;-71
2022/04/07 12:25:42;;;;;;;1.63;0.50;;;8.30;99.90;;;;;;5064485;28;20091;-70
2022/04/07 12:28:17;;;;;;;0.40;0.30;;;8.40;99.90;;;;;;5063563;28;20040;-70
2022/04/07 12:30:52;;;;;;;0.82;0.40;;;8.60;99.90;;;;;;5052527;28;20033;-70
2022/04/07 12:33:44;;;;;;;0.88;0.45;;;8.60;99.90;;;;;;5043742;28;20072;-70
2022/04/07 12:36:35;;;;;;;0.80;0.55;;;8.70;99.90;;;;;;5044120;28;20048;-71
2022/04/07 12:39:10;;;;;;;2.15;0.50;;;8.70;99.90;;;;;;5044926;28;20056;-71
2022/04/07 12:41:46;;;;;;;1.42;0.40;;;8.90;99.90;;;;;;5045278;28;20067;-70
2022/04/07 12:44:31;;;;;;;0.95;0.45;;;9.10;99.90;;;;;;5043240;28;20127;-70
2022/04/07 12:46:58;;;;;;;0.98;0.40;;;9.40;99.90;;;;;;5044263;28;20710;-69
2022/04/07 12:49:34;;;;;;;2.15;0.65;;;9.40;99.90;;;;;;5044256;28;20059;-69
2022/04/07 12:52:19;;;;;;;0.85;0.50;;;9.60;99.90;;;;;;5044984;28;20044;-69
2022/04/07 12:54:56;;;;;;;0.70;0.30;;;9.60;99.90;;;;;;5022701;28;20624;-69
2022/04/07 12:57:21;;;;;;;4.80;0.40;;;9.60;99.90;;;;;;5037535;28;20041;-69
2022/04/07 12:59:54;;;;;;;;;;;9.70;99.90;;;;;;5043686;28;20064;-69
2022/04/07 13:02:20;;;;;;;0.73;0.43;;;9.70;99.90;;;;;;5044409;28;20352;-69
2022/04/07 13:04:55;;;;;;;2.20;0.77;;;9.70;99.90;;;;;;5043942;28;20085;-70
2022/04/07 13:07:21;;;;;;;2.10;0.50;;;9.70;99.90;;;;;;5047984;28;20140;-69
2022/04/07 13:09:48;;;;;;;0.38;0.30;;;9.80;99.90;;;;;;5045584;28;20033;-70
2022/04/07 13:12:15;;;;;;;0.63;0.40;;;10.00;99.90;;;;;;5045573;28;20033;-70
2022/04/07 13:14:42;;;;;;;1.50;0.50;;;9.70;99.90;;;;;;5043368;28;20033;-70
2022/04/07 13:17:09;;;;;;;1.40;0.63;;;9.40;99.90;;;;;;5044952;28;20045;-70